Hickman, Nebraska
Current Conditions -  °F | °C
As of 7:54 AM on Thursday 30 Oct 2014 (Local Time) from KLNK Reporting Station
Clear Clear  
Wind Chill: 37°   Ceiling: Unl
Heat Index: 42°   Visibility: 10mi
Dew Point: 35°   Wind: 8mph
Humidity: 76%   Direction: 320°NW
Pressure: 30.06"   Gusts: NA
Location:  40.62°N, 96.63°W
Report Text: KLNK 301254Z 32007KT 10SM CLR 06/02 A3006 RMK AO2 SLP183 T00560017
Loading
Personal Weather Stations






























Interactive Weather Map
Tropical Storm Tracking
New forecast layout! Learn more

10-Day Weather Forecast

Advertisements
Track Severe Weather on mobile